Time;durP1;ratioP1;P1;durP2;ratioP2;P2;SDS_P1;SDS_P2;PMS_P1;PMS_P2;Temp;Humidity;BMP_temperature;BMP_pressure;BME280_temperature;BME280_humidity;BME280_pressure;Samples;Min_cycle;Max_cycle;Signal;HPM_P1;HPM_P2
2021/06/21 00:00:17;;;;;;;5.80;1.52;;;;;;;15.06;100.00;99915.66;5094883;28;20092;-77
2021/06/21 00:02:43;;;;;;;6.72;1.60;;;;;;;15.16;100.00;99914.31;5076763;28;20434;-78
2021/06/21 00:05:10;;;;;;;5.80;1.70;;;;;;;15.06;100.00;99914.81;5094746;28;20153;-77
2021/06/21 00:07:35;;;;;;;5.97;1.35;;;;;;;14.99;100.00;99909.00;5076531;28;20103;-77
2021/06/21 00:10:01;;;;;;;7.40;1.92;;;;;;;15.08;100.00;99899.91;5094622;28;20516;-78
2021/06/21 00:12:26;;;;;;;5.07;1.38;;;;;;;15.12;100.00;99893.63;5076406;28;20028;-78
2021/06/21 00:14:51;;;;;;;6.47;1.50;;;;;;;15.11;100.00;99895.38;5094660;28;20024;-79
2021/06/21 00:17:17;;;;;;;6.60;1.45;;;;;;;15.10;100.00;99903.31;5094628;28;20020;-77
2021/06/21 00:19:44;;;;;;;7.13;1.73;;;;;;;15.09;100.00;99910.28;5094448;28;20035;-77
2021/06/21 00:22:10;;;;;;;6.43;1.85;;;;;;;15.05;100.00;99913.94;5094096;28;20076;-77
2021/06/21 00:24:35;;;;;;;6.43;1.65;;;;;;;15.01;100.00;99909.81;5094188;28;20030;-79
2021/06/21 00:27:01;;;;;;;6.00;1.38;;;;;;;15.02;100.00;99902.81;5094405;28;20020;-77
2021/06/21 00:29:26;;;;;;;8.20;2.58;;;;;;;15.04;100.00;99907.03;5076078;28;20028;-77
2021/06/21 00:31:52;;;;;;;7.45;1.70;;;;;;;14.99;100.00;99918.63;5094340;28;20039;-77
2021/06/21 00:34:17;;;;;;;7.95;1.70;;;;;;;14.98;100.00;99920.38;5094341;28;20032;-77
2021/06/21 00:36:42;;;;;;;6.18;1.70;;;;;;;14.88;100.00;99917.38;5094370;28;20055;-77
2021/06/21 00:39:08;;;;;;;12.23;2.10;;;;;;;14.89;100.00;99916.44;5094127;28;20016;-77
2021/06/21 00:41:35;;;;;;;6.43;1.70;;;;;;;14.93;100.00;99914.53;5076016;28;20031;-77
2021/06/21 00:44:01;;;;;;;7.95;1.90;;;;;;;14.97;100.00;99916.09;5094080;28;20028;-78
2021/06/21 00:46:26;;;;;;;6.18;1.60;;;;;;;14.99;100.00;99924.69;5094000;28;20107;-77
2021/06/21 00:48:51;;;;;;;5.43;2.13;;;;;;;14.92;100.00;99920.69;5075719;28;20028;-77
2021/06/21 00:51:17;;;;;;;7.95;1.80;;;;;;;14.90;100.00;99912.94;5093872;28;20062;-78
2021/06/21 00:53:43;;;;;;;7.93;1.58;;;;;;;14.85;100.00;99912.28;5075572;28;20028;-77
2021/06/21 00:56:09;;;;;;;8.18;2.38;;;;;;;14.82;100.00;99916.81;5093790;28;20515;-77
2021/06/21 00:58:35;;;;;;;8.30;2.10;;;;;;;14.79;100.00;99912.56;5093802;28;20080;-77
2021/06/21 01:01:01;;;;;;;9.65;2.65;;;;;;;14.87;100.00;99913.06;5093788;28;20077;-77
2021/06/21 01:03:26;;;;;;;7.35;1.95;;;;;;;14.81;100.00;99923.81;5075530;28;20020;-77
2021/06/21 01:05:52;;;;;;;13.80;2.58;;;;;;;14.82;100.00;99906.38;5093975;28;20360;-77
2021/06/21 01:08:17;;;;;;;10.95;2.15;;;;;;;14.81;100.00;99897.69;5093587;28;20144;-77
2021/06/21 01:10:46;;;;;;;14.50;2.83;;;;;;;14.84;100.00;99900.16;5093713;28;20020;-77
2021/06/21 01:17:01;;;;;;;10.05;2.58;;;;;;;14.83;100.00;99892.38;5073125;28;20507;-77
2021/06/21 01:19:29;;;;;;;8.50;2.20;;;;;;;14.88;100.00;99883.41;5075325;28;20020;-77
2021/06/21 01:22:40;;;;;;;6.40;2.30;;;;;;;14.84;100.00;99873.19;5093272;28;20024;-77
2021/06/21 01:25:40;;;;;;;8.02;2.38;;;;;;;14.88;100.00;99853.84;5075249;28;20537;-78
2021/06/21 01:28:37;;;;;;;8.70;2.60;;;;;;;14.90;100.00;99847.66;5093368;28;20114;-78
2021/06/21 01:31:19;;;;;;;10.30;2.72;;;;;;;14.92;100.00;99845.78;5093374;28;20098;-77
2021/06/21 01:33:46;;;;;;;12.55;2.65;;;;;;;14.98;100.00;99854.25;5075175;28;20031;-78
2021/06/21 01:36:15;;;;;;;9.00;2.30;;;;;;;14.95;100.00;99847.41;5093329;28;20024;-77
2021/06/21 01:38:50;;;;;;;10.93;2.38;;;;;;;14.82;100.00;99849.78;5093272;28;20115;-78
2021/06/21 01:41:21;;;;;;;9.52;2.20;;;;;;;14.75;100.00;99858.81;5093216;28;20020;-77
2021/06/21 01:43:50;;;;;;;11.90;2.92;;;;;;;14.83;100.00;99841.00;5093230;28;20028;-77
2021/06/21 01:46:19;;;;;;;9.43;3.00;;;;;;;14.90;100.00;99838.94;5093142;28;20514;-77
2021/06/21 01:48:50;;;;;;;8.35;2.67;;;;;;;14.93;100.00;99834.44;5093080;28;20391;-78
2021/06/21 01:51:17;;;;;;;10.40;2.30;;;;;;;14.88;100.00;99830.34;5093201;28;20055;-78
2021/06/21 01:53:47;;;;;;;8.32;2.40;;;;;;;14.93;100.00;99833.56;5093165;28;20080;-78
2021/06/21 01:56:20;;;;;;;9.35;2.42;;;;;;;14.80;100.00;99835.94;5093084;28;20092;-78
2021/06/21 01:58:48;;;;;;;9.80;2.80;;;;;;;14.81;100.00;99839.38;5093199;28;20027;-77
2021/06/21 02:01:17;;;;;;;8.43;2.85;;;;;;;14.88;100.00;99828.59;5093034;28;20027;-77
2021/06/21 02:03:48;;;;;;;10.93;2.60;;;;;;;14.82;100.00;99838.47;5074859;28;20392;-78
2021/06/21 02:06:14;;;;;;;8.90;2.70;;;;;;;14.84;100.00;99821.84;5093456;28;20109;-77
2021/06/21 02:08:41;;;;;;;12.40;3.10;;;;;;;14.94;100.00;99817.84;5075432;28;20028;-78
2021/06/21 02:11:08;;;;;;;11.40;2.50;;;;;;;15.06;100.00;99818.19;5093358;28;20020;-78
2021/06/21 02:13:35;;;;;;;9.25;2.45;;;;;;;15.03;100.00;99815.72;5092880;28;20031;-77
2021/06/21 02:16:00;;;;;;;9.25;2.33;;;;;;;14.96;100.00;99812.53;5093072;28;20042;-78
2021/06/21 02:18:26;;;;;;;6.80;2.20;;;;;;;14.92;100.00;99811.84;5092924;28;20024;-77
2021/06/21 02:20:53;;;;;;;13.73;2.72;;;;;;;14.85;100.00;99807.00;5074715;28;20020;-77
2021/06/21 02:23:22;;;;;;;8.88;2.50;;;;;;;14.70;100.00;99809.41;5074642;28;20483;-77
2021/06/21 02:25:49;;;;;;;12.38;3.13;;;;;;;14.78;100.00;99803.84;5092868;28;20032;-77
2021/06/21 02:28:18;;;;;;;8.80;2.47;;;;;;;14.64;100.00;99801.03;5092794;28;20036;-78
2021/06/21 02:30:44;;;;;;;10.85;2.90;;;;;;;14.79;100.00;99805.53;5092764;28;20028;-78
2021/06/21 02:33:12;;;;;;;9.50;2.92;;;;;;;14.60;100.00;99815.16;5092794;28;20526;-78
2021/06/21 02:35:38;;;;;;;11.15;3.05;;;;;;;14.49;100.00;99821.66;5092739;28;20024;-78
2021/06/21 02:38:03;;;;;;;11.60;3.80;;;;;;;14.56;100.00;99826.63;5092736;28;20074;-77
2021/06/21 02:40:29;;;;;;;13.63;3.40;;;;;;;14.31;100.00;99822.50;5092680;28;20024;-77
2021/06/21 02:42:54;;;;;;;13.50;3.50;;;;;;;14.40;100.00;99821.25;5092702;28;20376;-77
2021/06/21 02:45:19;;;;;;;10.35;4.10;;;;;;;14.42;100.00;99819.44;5092743;28;20055;-77
2021/06/21 02:47:45;;;;;;;13.57;3.67;;;;;;;14.44;100.00;99828.00;5096498;28;20468;-77
2021/06/21 02:50:11;;;;;;;8.00;3.17;;;;;;;14.27;100.00;99815.75;5096488;28;20031;-77
2021/06/21 02:52:45;;;;;;;12.07;3.22;;;;;;;14.24;100.00;99821.94;5078028;28;20024;-77
2021/06/21 02:55:31;;;;;;;;;;;;;;;14.24;100.00;99832.38;5096989;28;20386;-77
2021/06/21 02:58:02;;;;;;;10.40;3.33;;;;;;;14.09;100.00;99837.44;5095576;28;19931;-77
2021/06/21 03:00:28;;;;;;;8.90;3.25;;;;;;;13.95;100.00;99838.91;5078500;28;20028;-77
2021/06/21 03:02:55;;;;;;;9.60;3.75;;;;;;;14.01;100.00;99849.06;5096028;28;20471;-77
2021/06/21 03:05:21;;;;;;;9.27;4.15;;;;;;;14.00;100.00;99838.69;5096012;28;20395;-77
2021/06/21 03:07:49;;;;;;;11.00;4.70;;;;;;;13.97;100.00;99839.66;5077885;28;20020;-77
2021/06/21 03:10:16;;;;;;;11.48;3.75;;;;;;;13.92;100.00;99833.81;5095970;28;20024;-79
2021/06/21 03:12:43;;;;;;;11.05;4.63;;;;;;;13.88;100.00;99828.78;5077646;28;20026;-78
2021/06/21 03:15:09;;;;;;;13.48;5.30;;;;;;;13.87;100.00;99820.13;5095815;28;20024;-77
2021/06/21 03:17:35;;;;;;;13.65;5.38;;;;;;;13.85;100.00;99816.72;5095784;28;20380;-77
2021/06/21 03:20:01;;;;;;;16.23;6.82;;;;;;;13.77;100.00;99816.25;5095692;28;20023;-77
2021/06/21 03:22:26;;;;;;;14.15;7.07;;;;;;;13.74;100.00;99818.97;5077727;28;20027;-77
2021/06/21 03:24:55;;;;;;;14.52;6.40;;;;;;;13.67;100.00;99815.78;5095967;28;20101;-77
2021/06/21 03:27:29;;;;;;;15.55;7.65;;;;;;;13.61;100.00;99820.41;5096037;28;20458;-79
2021/06/21 03:29:55;;;;;;;17.75;7.20;;;;;;;13.56;100.00;99808.41;5095602;28;20024;-79
2021/06/21 03:32:27;;;;;;;12.73;7.22;;;;;;;13.65;100.00;99804.56;5095292;28;20499;-77
2021/06/21 03:34:59;;;;;;;9.82;6.10;;;;;;;13.62;100.00;99796.06;5077522;28;20032;-79
2021/06/21 03:37:25;;;;;;;14.43;7.72;;;;;;;13.84;100.00;99801.19;5095717;28;20057;-79
2021/06/21 03:39:51;;;;;;;10.90;5.90;;;;;;;13.66;100.00;99795.84;5077192;28;20067;-78
2021/06/21 03:42:16;;;;;;;12.48;6.72;;;;;;;13.54;100.00;99794.59;5095300;28;20020;-78
2021/06/21 03:44:41;;;;;;;15.60;7.63;;;;;;;13.57;100.00;99793.63;5077139;28;20051;-78
2021/06/21 03:47:09;;;;;;;12.50;6.45;;;;;;;13.58;100.00;99785.75;5095229;28;20085;-78
2021/06/21 03:49:35;;;;;;;12.27;7.10;;;;;;;13.48;100.00;99794.88;5095194;28;20116;-78
2021/06/21 03:52:00;;;;;;;12.27;7.03;;;;;;;13.61;100.00;99789.13;5095092;28;20064;-78
2021/06/21 03:54:25;;;;;;;10.43;5.80;;;;;;;13.60;100.00;99785.69;5095232;28;20073;-78
2021/06/21 03:56:50;;;;;;;11.63;6.50;;;;;;;13.60;100.00;99780.47;5095959;28;20051;-78
2021/06/21 03:59:16;;;;;;;11.13;7.10;;;;;;;13.60;100.00;99777.84;5094951;28;20464;-78
2021/06/21 04:01:41;;;;;;;10.57;6.05;;;;;;;13.56;100.00;99784.13;5095320;28;20103;-79
2021/06/21 04:04:06;;;;;;;12.85;6.50;;;;;;;13.68;100.00;99772.34;5077069;28;20395;-79
2021/06/21 04:06:32;;;;;;;13.20;7.35;;;;;;;13.63;100.00;99771.69;5077026;28;20028;-79
2021/06/21 04:08:57;;;;;;;8.95;6.03;;;;;;;13.58;100.00;99770.13;5096112;28;20024;-79
2021/06/21 04:11:25;;;;;;;12.73;6.20;;;;;;;13.57;100.00;99767.56;5096242;28;20028;-79
2021/06/21 04:13:52;;;;;;;11.27;6.70;;;;;;;13.60;100.00;99764.84;5077424;28;20102;-79
2021/06/21 04:16:17;;;;;;;13.50;6.85;;;;;;;13.43;100.00;99765.56;5094987;28;20055;-78
2021/06/21 04:18:43;;;;;;;9.85;5.95;;;;;;;13.58;100.00;99764.06;5095269;28;20024;-78
2021/06/21 04:21:08;;;;;;;10.70;6.28;;;;;;;13.57;100.00;99767.56;5094750;28;20479;-79
2021/06/21 04:23:33;;;;;;;11.23;6.57;;;;;;;13.59;100.00;99768.38;5095088;28;20038;-79
2021/06/21 04:25:58;;;;;;;14.82;6.82;;;;;;;13.50;100.00;99759.19;5076522;28;20020;-79
2021/06/21 04:28:24;;;;;;;13.65;6.00;;;;;;;13.65;100.00;99746.41;5095556;28;20025;-79
2021/06/21 04:30:49;;;;;;;9.40;4.30;;;;;;;13.58;100.00;99740.63;5094438;28;20123;-78
2021/06/21 04:33:14;;;;;;;9.52;5.20;;;;;;;13.62;100.00;99733.50;5113010;22;20105;-81
2021/06/21 04:35:40;;;;;;;11.20;6.22;;;;;;;13.68;100.00;99748.88;5074900;28;20485;-81
2021/06/21 04:38:05;;;;;;;9.95;5.28;;;;;;;13.55;100.00;99754.63;5073623;28;20016;-81
2021/06/21 04:40:34;;;;;;;9.65;4.93;;;;;;;13.62;100.00;99759.56;5075491;28;20081;-81
2021/06/21 04:43:00;;;;;;;9.77;5.57;;;;;;;13.55;100.00;99767.66;5073451;28;20025;-81
2021/06/21 04:45:25;;;;;;;7.55;4.93;;;;;;;13.63;100.00;99764.69;5074564;28;20029;-79
2021/06/21 04:47:52;;;;;;;12.07;5.25;;;;;;;13.62;100.00;99775.22;5074167;28;20396;-81
2021/06/21 04:50:19;;;;;;;7.95;4.38;;;;;;;13.66;100.00;99768.94;5072805;28;20063;-81
2021/06/21 04:52:45;;;;;;;10.32;5.68;;;;;;;13.62;100.00;99760.41;5072935;28;20029;-81
2021/06/21 04:55:13;;;;;;;10.35;5.32;;;;;;;13.67;100.00;99750.66;5072851;28;20020;-81
2021/06/21 04:57:38;;;;;;;10.80;4.97;;;;;;;13.63;100.00;99751.66;5074347;28;20025;-81
2021/06/21 05:00:07;;;;;;;10.27;5.55;;;;;;;13.63;100.00;99753.44;5073292;28;20017;-81
2021/06/21 05:02:32;;;;;;;8.20;4.97;;;;;;;13.72;100.00;99750.44;5074806;28;20051;-79
2021/06/21 05:04:57;;;;;;;9.70;5.00;;;;;;;13.63;100.00;99750.84;5073019;28;20079;-79
2021/06/21 05:07:23;;;;;;;7.65;5.18;;;;;;;13.72;100.00;99761.69;5074636;28;20033;-79
2021/06/21 05:09:48;;;;;;;8.93;4.68;;;;;;;13.73;100.00;99755.59;5074086;28;20017;-79
2021/06/21 05:12:13;;;;;;;7.53;5.20;;;;;;;13.62;100.00;99739.56;5074616;28;20090;-79
2021/06/21 05:14:39;;;;;;;8.77;4.40;;;;;;;13.70;100.00;99731.41;5074230;28;20032;-79
2021/06/21 05:17:07;;;;;;;8.95;3.83;;;;;;;13.70;100.00;99727.06;5072971;28;20514;-79
2021/06/21 05:19:33;;;;;;;6.97;4.22;;;;;;;13.72;100.00;99730.41;5074702;28;20463;-81
2021/06/21 05:21:58;;;;;;;6.57;4.22;;;;;;;13.72;100.00;99727.81;5073446;28;20031;-81
2021/06/21 05:24:24;;;;;;;5.97;3.70;;;;;;;13.76;100.00;99724.19;5073658;28;20028;-80
2021/06/21 05:26:49;;;;;;;7.70;4.85;;;;;;;13.69;100.00;99720.13;5073824;28;20476;-81
2021/06/21 05:29:14;;;;;;;10.57;4.38;;;;;;;13.78;100.00;99714.50;5074882;28;20016;-81
2021/06/21 05:31:41;;;;;;;7.50;4.05;;;;;;;13.80;100.00;99711.84;5075914;28;20040;-80
2021/06/21 05:34:09;;;;;;;8.52;4.43;;;;;;;13.80;100.00;99702.25;5076276;28;20039;-80
2021/06/21 05:36:37;;;;;;;13.25;4.85;;;;;;;13.86;100.00;99698.53;5076464;28;20407;-80
2021/06/21 05:39:07;;;;;;;7.43;4.70;;;;;;;13.80;100.00;99694.44;5075969;28;20536;-82
2021/06/21 05:41:32;;;;;;;7.70;4.47;;;;;;;13.87;100.00;99684.56;5077390;28;20036;-81
2021/06/21 05:43:57;;;;;;;7.80;3.55;;;;;;;13.91;100.00;99687.88;5075065;28;20028;-81
2021/06/21 05:46:23;;;;;;;6.53;3.72;;;;;;;13.97;100.00;99678.00;5074837;28;20028;-81
2021/06/21 05:48:48;;;;;;;9.27;3.22;;;;;;;13.94;100.00;99680.75;5075635;28;20017;-81
2021/06/21 05:51:14;;;;;;;4.55;2.30;;;;;;;13.92;100.00;99674.78;5074935;28;20024;-81
2021/06/21 05:53:39;;;;;;;6.00;2.33;;;;;;;13.98;100.00;99669.31;5073494;28;20016;-81
2021/06/21 05:56:04;;;;;;;7.28;2.40;;;;;;;14.03;100.00;99659.47;5073720;28;20392;-81
2021/06/21 05:58:30;;;;;;;6.50;2.85;;;;;;;14.08;100.00;99663.66;5075051;28;20012;-81
2021/06/21 06:00:55;;;;;;;6.32;2.17;;;;;;;13.98;100.00;99658.88;5072979;28;20471;-81
2021/06/21 06:03:20;;;;;;;6.22;2.20;;;;;;;14.01;100.00;99653.50;5073957;28;20497;-81
2021/06/21 06:05:46;;;;;;;10.07;2.33;;;;;;;13.94;100.00;99646.88;5074734;28;20024;-81
2021/06/21 06:08:11;;;;;;;6.20;2.65;;;;;;;14.02;100.00;99652.59;5074400;28;20031;-81
2021/06/21 06:10:36;;;;;;;4.80;2.10;;;;;;;14.01;100.00;99650.91;5072793;28;20025;-81
2021/06/21 06:13:02;;;;;;;6.80;2.33;;;;;;;14.00;100.00;99645.75;5074860;28;20101;-81
2021/06/21 06:15:27;;;;;;;5.93;1.80;;;;;;;13.90;100.00;99639.28;5074640;28;20029;-82
2021/06/21 06:17:52;;;;;;;13.27;2.20;;;;;;;13.87;100.00;99631.59;5075420;28;20039;-82
2021/06/21 06:20:18;;;;;;;5.68;2.50;;;;;;;13.88;100.00;99631.53;5074544;28;20074;-82
2021/06/21 06:22:44;;;;;;;4.40;1.73;;;;;;;13.83;100.00;99620.47;5077378;28;20145;-81
2021/06/21 06:25:10;;;;;;;4.45;1.70;;;;;;;13.88;100.00;99621.09;5077408;28;20056;-81
2021/06/21 06:27:37;;;;;;;5.00;1.85;;;;;;;13.90;100.00;99637.53;5077551;28;20115;-81
2021/06/21 06:30:05;;;;;;;5.07;2.08;;;;;;;13.77;100.00;99641.63;5078199;28;20024;-81
2021/06/21 06:32:31;;;;;;;4.80;1.77;;;;;;;13.91;100.00;99644.41;5078197;28;20024;-81
2021/06/21 06:34:56;;;;;;;6.82;2.03;;;;;;;13.87;100.00;99645.47;5076315;28;20020;-81
2021/06/21 06:37:21;;;;;;;8.05;2.30;;;;;;;13.86;100.00;99635.97;5076962;28;20473;-81
2021/06/21 06:39:46;;;;;;;4.15;1.90;;;;;;;13.93;100.00;99645.19;5078571;28;20069;-81
2021/06/21 06:42:12;;;;;;;4.35;1.70;;;;;;;13.86;100.00;99649.00;5077056;28;20016;-81
2021/06/21 06:44:37;;;;;;;6.97;2.83;;;;;;;13.97;100.00;99644.13;5078203;28;20169;-81
2021/06/21 06:47:04;;;;;;;6.28;1.95;;;;;;;13.98;100.00;99648.44;5078282;28;20025;-82
2021/06/21 06:49:29;;;;;;;4.53;1.90;;;;;;;14.07;100.00;99644.56;5078978;28;20055;-82
2021/06/21 06:51:55;;;;;;;6.07;1.50;;;;;;;13.98;100.00;99645.84;5077626;28;20033;-81
2021/06/21 06:54:28;;;;;;;5.53;2.00;;;;;;;14.05;100.00;99646.38;5077792;28;20025;-81
2021/06/21 06:57:03;;;;;;;4.38;1.80;;;;;;;14.08;100.00;99653.22;5078277;28;20044;-82
2021/06/21 06:59:31;;;;;;;5.75;1.83;;;;;;;13.98;100.00;99658.03;5077571;28;20157;-82
2021/06/21 07:01:58;;;;;;;4.38;1.60;;;;;;;14.04;100.00;99657.75;5079972;28;20032;-82
2021/06/21 07:04:24;;;;;;;4.00;1.67;;;;;;;14.12;100.00;99667.81;5077726;28;20028;-82
2021/06/21 07:06:50;;;;;;;6.30;1.58;;;;;;;14.02;100.00;99673.44;5075845;28;20024;-84
2021/06/21 07:09:15;;;;;;;7.43;1.75;;;;;;;14.17;100.00;99676.25;5075060;28;20043;-84
2021/06/21 07:11:40;;;;;;;4.90;1.90;;;;;;;14.27;100.00;99680.94;5075590;28;20074;-83
2021/06/21 07:14:06;;;;;;;3.92;1.85;;;;;;;14.34;100.00;99691.09;5077371;28;20036;-82
2021/06/21 07:16:33;;;;;;;4.18;1.42;;;;;;;14.16;100.00;99685.84;5077471;28;20025;-82
2021/06/21 07:18:58;;;;;;;4.15;1.70;;;;;;;14.23;100.00;99694.22;5078423;28;20020;-81
2021/06/21 07:21:24;;;;;;;4.85;2.03;;;;;;;14.34;100.00;99691.09;5076989;28;20494;-81
2021/06/21 07:23:49;;;;;;;3.72;1.50;;;;;;;14.47;100.00;99692.19;5078079;28;20036;-83
2021/06/21 07:26:14;;;;;;;4.72;1.50;;;;;;;14.57;100.00;99690.03;5077475;28;20031;-82
2021/06/21 07:28:40;;;;;;;6.55;1.75;;;;;;;14.53;100.00;99686.72;5078102;28;20115;-82
2021/06/21 07:31:05;;;;;;;3.45;1.30;;;;;;;14.54;100.00;99690.19;5076777;28;20078;-83
2021/06/21 07:33:31;;;;;;;4.20;1.40;;;;;;;14.56;100.00;99685.72;5078235;28;20029;-83
2021/06/21 07:35:57;;;;;;;3.40;1.20;;;;;;;14.54;100.00;99692.78;5078031;28;20031;-83
2021/06/21 07:38:22;;;;;;;3.25;1.02;;;;;;;14.51;100.00;99693.78;5078757;28;20020;-82
2021/06/21 07:40:48;;;;;;;3.38;1.00;;;;;;;14.62;100.00;99690.63;5080034;28;20031;-83
2021/06/21 07:43:13;;;;;;;4.47;1.55;;;;;;;14.72;100.00;99691.91;5082856;28;20050;-82
2021/06/21 07:45:39;;;;;;;4.88;1.40;;;;;;;14.59;100.00;99696.00;5082423;28;20495;-82
2021/06/21 07:48:04;;;;;;;2.83;1.15;;;;;;;14.66;100.00;99697.41;5080676;28;20081;-81
2021/06/21 07:50:31;;;;;;;3.35;1.40;;;;;;;14.63;100.00;99695.81;5078900;28;20028;-81
2021/06/21 07:52:57;;;;;;;2.50;0.98;;;;;;;14.76;100.00;99698.66;5079135;28;20044;-81
2021/06/21 07:55:25;;;;;;;3.55;1.00;;;;;;;14.63;100.00;99695.81;5078138;28;20060;-81
2021/06/21 07:57:54;;;;;;;3.42;1.00;;;;;;;14.70;100.00;99688.50;5078453;28;20024;-81
2021/06/21 08:00:22;;;;;;;2.15;1.05;;;;;;;14.71;100.00;99687.56;5078743;28;20028;-81
2021/06/21 08:02:47;;;;;;;2.13;0.90;;;;;;;14.81;100.00;99691.44;5079894;28;20078;-82
2021/06/21 08:05:13;;;;;;;6.50;0.90;;;;;;;14.72;100.00;99695.34;5080678;28;20028;-82
2021/06/21 08:07:39;;;;;;;1.70;0.90;;;;;;;14.70;100.00;99698.94;5079379;28;20028;-82
2021/06/21 08:10:05;;;;;;;2.75;1.00;;;;;;;14.72;100.00;99700.56;5081089;28;20103;-82
2021/06/21 08:12:30;;;;;;;3.33;0.98;;;;;;;14.70;100.00;99696.34;5078368;28;20024;-82
2021/06/21 08:14:56;;;;;;;2.45;0.90;;;;;;;14.85;100.00;99706.03;5080135;28;20024;-82
2021/06/21 08:17:21;;;;;;;1.38;0.60;;;;;;;14.83;100.00;99707.84;5078630;28;20032;-82
2021/06/21 08:19:46;;;;;;;3.17;0.75;;;;;;;14.79;100.00;99702.88;5079393;28;20043;-82
2021/06/21 08:22:16;;;;;;;2.33;0.90;;;;;;;14.89;100.00;99701.50;5077065;28;20511;-82
2021/06/21 08:24:41;;;;;;;1.67;0.80;;;;;;;14.93;100.00;99690.84;5081271;28;20024;-81
2021/06/21 08:27:07;;;;;;;2.75;0.80;;;;;;;15.10;100.00;99703.03;5081502;28;20051;-82
2021/06/21 08:29:33;;;;;;;1.65;0.77;;;;;;;15.32;100.00;99688.88;5082184;28;20060;-82
2021/06/21 08:31:59;;;;;;;1.90;0.95;;;;;;;15.29;100.00;99695.09;5082090;28;20029;-82
2021/06/21 08:34:24;;;;;;;2.25;0.93;;;;;;;15.36;100.00;99691.25;5082462;28;20031;-82
2021/06/21 08:36:50;;;;;;;2.38;0.80;;;;;;;15.35;100.00;99688.72;5078296;28;20070;-82
2021/06/21 08:39:15;;;;;;;2.47;0.80;;;;;;;15.38;100.00;99676.31;5079069;28;20116;-82
2021/06/21 08:41:40;;;;;;;2.55;1.05;;;;;;;15.34;100.00;99689.66;5079887;28;20024;-82
2021/06/21 08:44:06;;;;;;;3.33;1.10;;;;;;;15.47;100.00;99682.84;5080219;28;20040;-81
2021/06/21 08:46:32;;;;;;;2.38;0.95;;;;;;;15.36;100.00;99685.16;5081651;28;20031;-81
2021/06/21 08:48:58;;;;;;;1.95;1.00;;;;;;;15.48;100.00;99688.91;5081923;28;20020;-82
2021/06/21 08:51:24;;;;;;;3.90;1.13;;;;;;;15.20;100.00;99688.56;5080698;28;20492;-82
2021/06/21 08:53:49;;;;;;;1.77;0.90;;;;;;;15.34;100.00;99679.19;5081225;28;20107;-81
2021/06/21 08:56:14;;;;;;;3.00;1.08;;;;;;;15.37;100.00;99685.09;5079641;28;20025;-81
2021/06/21 08:58:40;;;;;;;2.72;1.00;;;;;;;15.37;100.00;99689.50;5079459;28;20059;-81
2021/06/21 09:01:06;;;;;;;4.80;0.93;;;;;;;15.34;100.00;99687.88;5079348;28;20028;-81
2021/06/21 09:03:36;;;;;;;2.15;0.85;;;;;;;15.35;100.00;99681.72;5079456;28;20020;-80
2021/06/21 09:06:01;;;;;;;3.50;1.00;;;;;;;15.37;100.00;99681.66;5075863;28;20020;-81
2021/06/21 09:08:27;;;;;;;2.67;0.90;;;;;;;15.36;100.00;99679.94;5076552;28;20023;-80
2021/06/21 09:10:52;;;;;;;5.05;1.08;;;;;;;15.31;100.00;99671.50;5076369;28;20381;-81
2021/06/21 09:13:18;;;;;;;3.03;0.90;;;;;;;15.43;100.00;99666.50;5075592;28;20092;-81
2021/06/21 09:15:52;;;;;;;5.35;1.00;;;;;;;15.22;100.00;99674.59;5078113;28;20032;-80
2021/06/21 09:18:33;;;;;;;3.25;0.82;;;;;;;15.35;100.00;99668.66;5077855;28;20099;-80
2021/06/21 09:21:22;;;;;;;2.58;0.70;;;;;;;15.12;100.00;99669.00;5079174;28;20552;-82
2021/06/21 09:23:50;;;;;;;1.30;0.60;;;;;;;15.27;100.00;99675.19;5079627;28;20020;-81
2021/06/21 09:26:23;;;;;;;2.88;0.70;;;;;;;15.51;100.00;99673.06;5082490;28;20024;-81
2021/06/21 09:28:49;;;;;;;2.28;0.70;;;;;;;15.23;100.00;99664.06;5079008;28;20021;-81
2021/06/21 09:31:15;;;;;;;1.42;0.60;;;;;;;15.31;100.00;99663.69;5077741;28;20028;-81
2021/06/21 09:33:41;;;;;;;2.47;0.77;;;;;;;15.71;100.00;99661.59;5079582;28;20507;-81
2021/06/21 09:36:06;;;;;;;1.65;0.63;;;;;;;15.70;100.00;99659.91;5078236;28;20029;-81
2021/06/21 09:38:32;;;;;;;2.22;0.50;;;;;;;15.80;100.00;99667.19;5079376;28;20028;-81
2021/06/21 09:40:59;;;;;;;3.05;0.82;;;;;;;15.43;100.00;99669.09;5076517;28;20174;-81
2021/06/21 09:43:33;;;;;;;1.20;0.60;;;;;;;15.45;100.00;99670.78;5077835;28;20025;-81
2021/06/21 09:46:10;;;;;;;2.03;1.00;;;;;;;15.41;100.00;99677.94;5076692;28;20438;-81
2021/06/21 09:48:41;;;;;;;1.02;0.50;;;;;;;15.32;100.00;99681.88;5077547;28;20055;-81
2021/06/21 09:51:20;;;;;;;3.03;0.70;;;;;;;15.48;100.00;99681.06;5077531;28;20032;-81
2021/06/21 09:54:00;;;;;;;1.27;0.63;;;;;;;15.38;100.00;99672.88;5078759;28;20030;-81
2021/06/21 09:56:52;;;;;;;3.10;0.60;;;;;;;15.59;100.00;99678.75;5083380;28;20052;-81
2021/06/21 09:59:25;;;;;;;2.03;0.73;;;;;;;15.82;100.00;99667.91;5074002;28;20496;-81
2021/06/21 10:02:28;;;;;;;3.30;0.90;;;;;;;15.66;100.00;99674.88;5080555;28;20031;-81
2021/06/21 10:04:53;;;;;;;1.90;0.70;;;;;;;15.80;100.00;99667.19;5002822;28;20021;-81
2021/06/21 10:07:36;;;;;;;1.20;0.70;;;;;;;15.92;100.00;99676.13;5065402;28;20029;-81
2021/06/21 10:10:06;;;;;;;2.38;0.80;;;;;;;15.86;100.00;99669.47;5079524;28;20035;-81
2021/06/21 10:12:32;;;;;;;1.67;0.63;;;;;;;15.90;100.00;99666.69;5081748;28;20103;-81
2021/06/21 10:14:58;;;;;;;3.50;0.95;;;;;;;15.82;100.00;99675.75;5081552;28;20033;-81
2021/06/21 10:17:24;;;;;;;2.15;0.80;;;;;;;15.68;100.00;99678.28;5079945;28;20020;-81
2021/06/21 10:19:49;;;;;;;1.45;0.63;;;;;;;15.56;100.00;99679.75;5080241;28;20507;-81
2021/06/21 10:22:16;;;;;;;5.35;0.90;;;;;;;15.73;100.00;99673.63;5081761;28;20080;-81
2021/06/21 10:24:43;;;;;;;1.60;0.80;;;;;;;15.73;100.00;99676.25;5081540;28;20033;-81
2021/06/21 10:27:08;;;;;;;2.15;0.70;;;;;;;15.71;100.00;99678.13;5080054;28;20028;-81
2021/06/21 10:29:35;;;;;;;2.80;0.90;;;;;;;15.71;100.00;99678.13;5081418;28;20380;-81
2021/06/21 10:32:04;;;;;;;2.85;0.80;;;;;;;15.78;100.00;99679.47;5081596;28;20107;-81
2021/06/21 10:34:30;;;;;;;2.05;0.60;;;;;;;15.90;100.00;99685.81;5081816;28;20032;-81
2021/06/21 10:36:57;;;;;;;2.67;0.70;;;;;;;16.07;100.00;99683.13;5080489;28;20028;-81
2021/06/21 10:39:24;;;;;;;2.90;0.80;;;;;;;16.11;100.00;99681.19;5081968;28;20103;-81
2021/06/21 10:42:04;;;;;;;2.28;0.88;;;;;;;16.06;100.00;99685.81;5082004;28;20035;-81
2021/06/21 10:44:44;;;;;;;2.45;0.70;;;;;;;16.15;100.00;99693.16;5085098;28;20082;-81
2021/06/21 10:47:36;;;;;;;2.78;0.73;;;;;;;16.22;100.00;99685.81;5082382;28;20437;-81
2021/06/21 10:50:05;;;;;;;1.88;0.60;;;;;;;16.25;100.00;99694.34;5080294;28;20020;-81
2021/06/21 10:52:39;;;;;;;1.33;0.80;;;;;;;16.05;100.00;99692.84;5111280;22;20044;-77
2021/06/21 10:55:32;;;;;;;3.70;1.17;;;;;;;15.76;100.00;99693.56;5056081;28;20033;-77
2021/06/21 10:58:05;;;;;;;4.38;1.30;;;;;;;15.77;100.00;99696.09;5055997;28;20460;-78
2021/06/21 11:00:30;;;;;;;3.40;1.30;;;;;;;15.87;100.00;99705.13;5055916;28;20028;-79
2021/06/21 11:02:55;;;;;;;2.87;1.10;;;;;;;15.61;100.00;99700.44;5055796;28;20025;-77
2021/06/21 11:05:38;;;;;;;2.83;1.30;;;;;;;15.68;100.00;99703.59;5055929;28;20474;-79
2021/06/21 11:08:21;;;;;;;3.28;1.10;;;;;;;15.62;100.00;99710.78;5055651;28;20028;-78
2021/06/21 11:10:58;;;;;;;4.47;1.15;;;;;;;15.72;100.00;99705.94;5054491;28;20036;-78
2021/06/21 11:13:32;;;;;;;4.10;1.13;;;;;;;15.70;100.00;99697.38;5055880;28;20028;-79
2021/06/21 11:16:19;;;;;;;2.20;1.00;;;;;;;15.55;100.00;99698.13;5058697;28;20032;-80
2021/06/21 11:18:51;;;;;;;2.30;1.17;;;;;;;15.71;100.00;99699.03;5058708;28;20103;-80
2021/06/21 11:21:23;;;;;;;3.15;1.05;;;;;;;15.90;100.00;99704.13;5057151;28;20028;-80
2021/06/21 11:23:51;;;;;;;4.13;1.23;;;;;;;16.01;100.00;99696.56;5057414;28;20029;-79
2021/06/21 11:26:17;;;;;;;3.38;1.15;;;;;;;16.05;100.00;99698.06;5056832;28;20024;-80
2021/06/21 11:28:48;;;;;;;3.08;1.45;;;;;;;15.83;100.00;99698.38;5057566;28;20025;-80
2021/06/21 11:31:23;;;;;;;2.85;1.20;;;;;;;15.87;100.00;99710.34;5056643;28;20083;-80